Stockholm Västerås Airport

ESOW · Västmanland, 瑞典

罗盘
风向 的 风向 210° Stockholm Västerås Airport 1/19
风: 9 kt, 3 beaufort

9 kt

3 kt
改变
0 ft 2.000 4.000 6.000 8.000 10.000
Cloud Cloud
FEW 1.100
Cloud Cloud Cloud Cloud
SCT 7.600
Cloud Cloud Cloud Cloud Cloud Cloud
BKN 9.000
METAR ESOW 241520Z AUTO 21009KT 9999 FEW011/// SCT076/// BKN090/// 20/15 Q1011 REDZ

METAR Stockholm Västerås Airport - ESOW/VST

Stockholm Västerås Airport是,瑞典中的中型机场。 该机场位于纬度59,58983和经度16,63387。 该机场有一条跑道: 1/19. 本场的ICAO机场代码为ESOW。 该机场的IATA代码为VST。 机场在Sweden FIR中。

该航空气象观测是针对Stockholm Västerås Airport在2024年7月24日 17:20, 当地时间进行的。

机场观察

风向为210°,速度为9 kt。

可见度为10 km 或者更多。

有几云在1.100 ft的高度, 疏云,零星散落的云朵在7.600 ft的高度 和 碎云在9.000 ft的高度。 破损或更高的上限为9.000 ft。

温度和风寒是20 °C。 露点为15 °C,相对湿度为73%。 海平面上的气压为1011 hPa (QNH)。 最近是细雨。

白天

今天,太阳从04:20升起,在21:39降落。 这适用于Stockholm Västerås Airport,世界夏令时可能有所不同。 当地时间与世界标准时间之间的时差为+2 小时。 夏令时目前正在进行中。

公司介绍

在这个机场,你可以找到飞行学校。 本场上唯一已知的公司是Scandinavian Aviation Academy。

体会

到Vliegles.nl去找飞行课程,跳伞和其他飞行体验。 浏览页面,了解Stockholm Västerås Airport附近所有可用的活动。 你也可以使用搜索功能来寻找你所在地附近的特定飞行课程、跳伞或其他飞行体验。

跑道

Id 标题 侧风 逆风 侧风 %
1/19 011°-191° 3 kt 9 kt 33 %

逆风成分最大的方向会被突出显示,并用于横风计算。 这并不一定意味着这个方向在使用。

乌云

1.100 ft FEW 几云
7.600 ft SCT 疏云,零星散落的云朵
9.000 ft BKN 碎云

温度 & 天气

最近的 细雨
温度 20 °C
露点 15 °C
相对湿度 73%
Kp-index 0 (0-9)

白天

日出
04:20
中午
13:00
日落
21:39 (4:02)

小工具

你想在你的网站上有一个关于Stockholm Västerås Airport的当前航空天气(METAR)的小部件吗?

显示HTML代码
报告变更